sensor_id;sensor_type;location;lat;lon;timestamp;P1;durP1;ratioP1;P2;durP2;ratioP2
55655;SDS011;41530;52.382;5.270;2022-11-15T00:00:54;7.13;;;4.18;;
55655;SDS011;41530;52.382;5.270;2022-11-15T00:03:25;6.00;;;4.53;;
55655;SDS011;41530;52.382;5.270;2022-11-15T00:05:54;6.18;;;4.28;;
55655;SDS011;41530;52.382;5.270;2022-11-15T00:08:21;5.50;;;3.70;;
55655;SDS011;41530;52.382;5.270;2022-11-15T00:10:58;8.10;;;4.70;;
55655;SDS011;41530;52.382;5.270;2022-11-15T00:13:27;5.80;;;3.88;;
55655;SDS011;41530;52.382;5.270;2022-11-15T00:15:56;9.07;;;4.22;;
55655;SDS011;41530;52.382;5.270;2022-11-15T00:18:24;6.20;;;4.13;;
55655;SDS011;41530;52.382;5.270;2022-11-15T00:20:52;6.93;;;4.47;;
55655;SDS011;41530;52.382;5.270;2022-11-15T00:23:19;6.82;;;4.47;;
55655;SDS011;41530;52.382;5.270;2022-11-15T00:25:46;7.43;;;4.60;;
55655;SDS011;41530;52.382;5.270;2022-11-15T00:28:13;7.32;;;4.18;;
55655;SDS011;41530;52.382;5.270;2022-11-15T00:30:40;7.03;;;4.28;;
55655;SDS011;41530;52.382;5.270;2022-11-15T00:33:08;6.85;;;4.30;;
55655;SDS011;41530;52.382;5.270;2022-11-15T00:35:36;9.15;;;4.25;;
55655;SDS011;41530;52.382;5.270;2022-11-15T00:38:02;9.68;;;4.78;;
55655;SDS011;41530;52.382;5.270;2022-11-15T00:40:29;9.18;;;4.50;;
55655;SDS011;41530;52.382;5.270;2022-11-15T00:42:56;6.68;;;4.40;;
55655;SDS011;41530;52.382;5.270;2022-11-15T00:45:24;7.15;;;3.90;;
55655;SDS011;41530;52.382;5.270;2022-11-15T00:47:51;7.78;;;4.85;;
55655;SDS011;41530;52.382;5.270;2022-11-15T00:50:18;6.85;;;4.20;;
55655;SDS011;41530;52.382;5.270;2022-11-15T00:52:45;7.95;;;4.90;;
55655;SDS011;41530;52.382;5.270;2022-11-15T00:55:16;9.18;;;5.03;;
55655;SDS011;41530;52.382;5.270;2022-11-15T00:57:43;10.52;;;4.97;;
55655;SDS011;41530;52.382;5.270;2022-11-15T01:00:11;10.05;;;5.03;;
55655;SDS011;41530;52.382;5.270;2022-11-15T01:02:39;7.40;;;4.20;;
55655;SDS011;41530;52.382;5.270;2022-11-15T01:05:05;9.13;;;5.18;;
55655;SDS011;41530;52.382;5.270;2022-11-15T01:07:33;8.10;;;4.47;;
55655;SDS011;41530;52.382;5.270;2022-11-15T01:10:00;9.27;;;5.30;;
55655;SDS011;41530;52.382;5.270;2022-11-15T01:12:27;9.80;;;4.60;;
55655;SDS011;41530;52.382;5.270;2022-11-15T01:14:54;9.05;;;5.35;;
55655;SDS011;41530;52.382;5.270;2022-11-15T01:17:21;10.70;;;4.88;;
55655;SDS011;41530;52.382;5.270;2022-11-15T01:19:48;12.25;;;5.57;;
55655;SDS011;41530;52.382;5.270;2022-11-15T01:22:15;9.07;;;4.93;;
55655;SDS011;41530;52.382;5.270;2022-11-15T01:24:42;9.15;;;5.15;;
55655;SDS011;41530;52.382;5.270;2022-11-15T01:27:09;11.02;;;5.45;;
55655;SDS011;41530;52.382;5.270;2022-11-15T01:29:36;11.43;;;5.03;;
55655;SDS011;41530;52.382;5.270;2022-11-15T01:32:03;10.88;;;4.80;;
55655;SDS011;41530;52.382;5.270;2022-11-15T01:34:30;8.93;;;4.97;;
55655;SDS011;41530;52.382;5.270;2022-11-15T01:36:57;8.48;;;4.50;;
55655;SDS011;41530;52.382;5.270;2022-11-15T01:39:24;10.38;;;5.00;;
55655;SDS011;41530;52.382;5.270;2022-11-15T01:41:51;9.77;;;4.82;;
55655;SDS011;41530;52.382;5.270;2022-11-15T01:47:01;10.70;;;4.88;;
55655;SDS011;41530;52.382;5.270;2022-11-15T01:49:32;9.25;;;5.28;;
55655;SDS011;41530;52.382;5.270;2022-11-15T01:52:02;8.73;;;4.90;;
55655;SDS011;41530;52.382;5.270;2022-11-15T01:54:31;11.57;;;5.10;;
55655;SDS011;41530;52.382;5.270;2022-11-15T01:56:59;11.05;;;5.30;;
55655;SDS011;41530;52.382;5.270;2022-11-15T01:59:30;10.00;;;5.45;;
55655;SDS011;41530;52.382;5.270;2022-11-15T02:01:58;9.98;;;5.30;;
55655;SDS011;41530;52.382;5.270;2022-11-15T02:04:29;11.65;;;5.80;;
55655;SDS011;41530;52.382;5.270;2022-11-15T02:06:59;9.50;;;5.20;;
55655;SDS011;41530;52.382;5.270;2022-11-15T02:09:29;10.52;;;5.05;;
55655;SDS011;41530;52.382;5.270;2022-11-15T02:11:57;12.02;;;5.57;;
55655;SDS011;41530;52.382;5.270;2022-11-15T02:14:25;11.02;;;4.95;;
55655;SDS011;41530;52.382;5.270;2022-11-15T02:19:58;12.45;;;5.38;;
55655;SDS011;41530;52.382;5.270;2022-11-15T02:23:21;10.07;;;5.28;;
55655;SDS011;41530;52.382;5.270;2022-11-15T02:26:08;11.13;;;5.30;;
55655;SDS011;41530;52.382;5.270;2022-11-15T02:29:08;9.48;;;5.15;;
55655;SDS011;41530;52.382;5.270;2022-11-15T02:31:44;12.30;;;5.93;;
55655;SDS011;41530;52.382;5.270;2022-11-15T02:39:43;11.10;;;5.90;;
55655;SDS011;41530;52.382;5.270;2022-11-15T02:42:26;10.52;;;5.20;;
55655;SDS011;41530;52.382;5.270;2022-11-15T02:45:23;9.75;;;5.30;;
55655;SDS011;41530;52.382;5.270;2022-11-15T02:47:55;11.18;;;4.93;;
55655;SDS011;41530;52.382;5.270;2022-11-15T02:50:27;11.15;;;5.25;;
55655;SDS011;41530;52.382;5.270;2022-11-15T02:52:55;9.80;;;5.50;;
55655;SDS011;41530;52.382;5.270;2022-11-15T02:55:33;8.80;;;5.30;;
55655;SDS011;41530;52.382;5.270;2022-11-15T02:58:13;11.35;;;5.55;;
55655;SDS011;41530;52.382;5.270;2022-11-15T03:04:18;10.05;;;5.15;;
55655;SDS011;41530;52.382;5.270;2022-11-15T03:07:02;10.63;;;5.15;;
55655;SDS011;41530;52.382;5.270;2022-11-15T03:09:54;9.00;;;5.20;;
55655;SDS011;41530;52.382;5.270;2022-11-15T03:15:15;10.38;;;5.63;;
55655;SDS011;41530;52.382;5.270;2022-11-15T03:17:53;13.30;;;5.95;;
55655;SDS011;41530;52.382;5.270;2022-11-15T03:20:27;10.75;;;5.53;;
55655;SDS011;41530;52.382;5.270;2022-11-15T03:23:00;11.35;;;5.32;;
55655;SDS011;41530;52.382;5.270;2022-11-15T03:25:32;8.55;;;4.95;;
55655;SDS011;41530;52.382;5.270;2022-11-15T03:28:03;11.50;;;5.47;;
55655;SDS011;41530;52.382;5.270;2022-11-15T03:30:34;9.68;;;5.35;;
55655;SDS011;41530;52.382;5.270;2022-11-15T03:33:04;9.57;;;5.20;;
55655;SDS011;41530;52.382;5.270;2022-11-15T03:35:39;11.20;;;6.10;;
55655;SDS011;41530;52.382;5.270;2022-11-15T03:38:17;10.63;;;5.50;;
55655;SDS011;41530;52.382;5.270;2022-11-15T03:40:55;10.45;;;5.30;;
55655;SDS011;41530;52.382;5.270;2022-11-15T03:46:16;11.63;;;5.88;;
55655;SDS011;41530;52.382;5.270;2022-11-15T03:48:50;8.55;;;5.20;;
55655;SDS011;41530;52.382;5.270;2022-11-15T03:51:21;9.75;;;5.50;;
55655;SDS011;41530;52.382;5.270;2022-11-15T03:53:48;13.27;;;5.53;;
55655;SDS011;41530;52.382;5.270;2022-11-15T03:56:15;12.75;;;5.88;;
55655;SDS011;41530;52.382;5.270;2022-11-15T03:58:42;10.82;;;5.60;;
55655;SDS011;41530;52.382;5.270;2022-11-15T04:01:09;13.30;;;5.45;;
55655;SDS011;41530;52.382;5.270;2022-11-15T04:03:36;9.63;;;5.35;;
55655;SDS011;41530;52.382;5.270;2022-11-15T04:06:04;10.63;;;5.40;;
55655;SDS011;41530;52.382;5.270;2022-11-15T04:08:31;11.32;;;5.53;;
55655;SDS011;41530;52.382;5.270;2022-11-15T04:10:59;11.60;;;5.68;;
55655;SDS011;41530;52.382;5.270;2022-11-15T04:13:27;13.27;;;5.95;;
55655;SDS011;41530;52.382;5.270;2022-11-15T04:15:54;13.65;;;5.95;;
55655;SDS011;41530;52.382;5.270;2022-11-15T04:18:22;9.52;;;4.97;;
55655;SDS011;41530;52.382;5.270;2022-11-15T04:20:48;12.02;;;5.47;;
55655;SDS011;41530;52.382;5.270;2022-11-15T04:23:33;9.65;;;5.07;;
55655;SDS011;41530;52.382;5.270;2022-11-15T04:26:20;10.25;;;5.50;;
55655;SDS011;41530;52.382;5.270;2022-11-15T04:28:48;9.82;;;4.85;;
55655;SDS011;41530;52.382;5.270;2022-11-15T04:31:33;11.67;;;5.37;;
55655;SDS011;41530;52.382;5.270;2022-11-15T04:34:00;9.25;;;5.28;;
55655;SDS011;41530;52.382;5.270;2022-11-15T04:36:27;13.55;;;5.25;;
55655;SDS011;41530;52.382;5.270;2022-11-15T04:39:12;9.50;;;5.03;;
55655;SDS011;41530;52.382;5.270;2022-11-15T04:41:40;9.32;;;5.50;;
55655;SDS011;41530;52.382;5.270;2022-11-15T04:44:07;10.77;;;5.65;;
55655;SDS011;41530;52.382;5.270;2022-11-15T04:46:33;12.52;;;5.80;;
55655;SDS011;41530;52.382;5.270;2022-11-15T04:49:00;9.60;;;5.40;;
55655;SDS011;41530;52.382;5.270;2022-11-15T04:51:27;9.70;;;5.10;;
55655;SDS011;41530;52.382;5.270;2022-11-15T04:53:55;10.68;;;5.55;;
55655;SDS011;41530;52.382;5.270;2022-11-15T04:56:22;10.70;;;4.95;;
55655;SDS011;41530;52.382;5.270;2022-11-15T04:58:50;10.55;;;5.13;;
55655;SDS011;41530;52.382;5.270;2022-11-15T05:01:17;8.60;;;4.82;;
55655;SDS011;41530;52.382;5.270;2022-11-15T05:03:44;10.10;;;5.45;;
55655;SDS011;41530;52.382;5.270;2022-11-15T05:06:29;12.88;;;5.20;;
55655;SDS011;41530;52.382;5.270;2022-11-15T05:08:56;12.15;;;5.13;;
55655;SDS011;41530;52.382;5.270;2022-11-15T05:11:26;12.45;;;5.63;;
55655;SDS011;41530;52.382;5.270;2022-11-15T05:13:55;11.10;;;5.20;;
55655;SDS011;41530;52.382;5.270;2022-11-15T05:16:22;9.10;;;5.05;;
55655;SDS011;41530;52.382;5.270;2022-11-15T05:18:52;9.02;;;5.18;;
55655;SDS011;41530;52.382;5.270;2022-11-15T05:21:20;10.88;;;5.07;;
55655;SDS011;41530;52.382;5.270;2022-11-15T05:23:50;10.02;;;5.40;;
55655;SDS011;41530;52.382;5.270;2022-11-15T05:26:17;11.30;;;5.20;;
55655;SDS011;41530;52.382;5.270;2022-11-15T05:28:45;12.73;;;5.15;;
55655;SDS011;41530;52.382;5.270;2022-11-15T05:31:13;9.30;;;4.80;;
55655;SDS011;41530;52.382;5.270;2022-11-15T05:33:42;13.20;;;4.80;;
55655;SDS011;41530;52.382;5.270;2022-11-15T05:36:16;9.90;;;4.93;;
55655;SDS011;41530;52.382;5.270;2022-11-15T05:38:48;7.88;;;4.68;;
55655;SDS011;41530;52.382;5.270;2022-11-15T05:41:17;10.00;;;4.75;;
55655;SDS011;41530;52.382;5.270;2022-11-15T05:43:47;7.82;;;4.50;;
55655;SDS011;41530;52.382;5.270;2022-11-15T05:46:16;8.57;;;4.60;;
55655;SDS011;41530;52.382;5.270;2022-11-15T05:48:45;9.27;;;4.68;;
55655;SDS011;41530;52.382;5.270;2022-11-15T05:51:15;7.70;;;4.50;;
55655;SDS011;41530;52.382;5.270;2022-11-15T05:53:45;6.75;;;4.40;;
55655;SDS011;41530;52.382;5.270;2022-11-15T05:56:13;7.85;;;4.60;;
55655;SDS011;41530;52.382;5.270;2022-11-15T05:58:41;8.07;;;4.88;;
55655;SDS011;41530;52.382;5.270;2022-11-15T06:01:09;8.18;;;4.55;;
55655;SDS011;41530;52.382;5.270;2022-11-15T06:03:36;8.30;;;4.57;;
55655;SDS011;41530;52.382;5.270;2022-11-15T06:06:02;8.90;;;4.75;;
55655;SDS011;41530;52.382;5.270;2022-11-15T06:08:29;7.10;;;4.13;;
55655;SDS011;41530;52.382;5.270;2022-11-15T06:10:56;7.20;;;4.35;;
55655;SDS011;41530;52.382;5.270;2022-11-15T06:13:22;7.82;;;4.55;;
55655;SDS011;41530;52.382;5.270;2022-11-15T06:15:50;6.55;;;4.18;;
55655;SDS011;41530;52.382;5.270;2022-11-15T06:18:17;8.40;;;4.35;;
55655;SDS011;41530;52.382;5.270;2022-11-15T06:20:44;10.02;;;4.47;;
55655;SDS011;41530;52.382;5.270;2022-11-15T06:23:11;8.10;;;3.75;;
55655;SDS011;41530;52.382;5.270;2022-11-15T06:25:37;7.85;;;3.97;;
55655;SDS011;41530;52.382;5.270;2022-11-15T06:28:04;5.63;;;3.88;;
55655;SDS011;41530;52.382;5.270;2022-11-15T06:30:31;5.95;;;3.65;;
55655;SDS011;41530;52.382;5.270;2022-11-15T06:32:59;5.43;;;3.58;;
55655;SDS011;41530;52.382;5.270;2022-11-15T06:35:27;6.88;;;3.83;;
55655;SDS011;41530;52.382;5.270;2022-11-15T06:37:55;5.28;;;3.47;;
55655;SDS011;41530;52.382;5.270;2022-11-15T06:40:22;5.63;;;3.90;;
55655;SDS011;41530;52.382;5.270;2022-11-15T06:42:49;6.43;;;3.72;;
55655;SDS011;41530;52.382;5.270;2022-11-15T06:45:16;6.72;;;3.78;;
55655;SDS011;41530;52.382;5.270;2022-11-15T06:47:46;7.47;;;3.83;;
55655;SDS011;41530;52.382;5.270;2022-11-15T06:50:13;15.05;;;3.15;;
55655;SDS011;41530;52.382;5.270;2022-11-15T06:52:39;5.50;;;3.30;;
55655;SDS011;41530;52.382;5.270;2022-11-15T06:55:06;6.40;;;3.65;;
55655;SDS011;41530;52.382;5.270;2022-11-15T06:57:34;7.97;;;3.67;;
55655;SDS011;41530;52.382;5.270;2022-11-15T07:00:04;7.15;;;4.00;;
55655;SDS011;41530;52.382;5.270;2022-11-15T07:02:31;6.97;;;3.72;;
55655;SDS011;41530;52.382;5.270;2022-11-15T07:04:58;10.40;;;3.25;;
55655;SDS011;41530;52.382;5.270;2022-11-15T07:07:25;6.63;;;3.83;;
55655;SDS011;41530;52.382;5.270;2022-11-15T07:09:52;5.55;;;3.10;;
55655;SDS011;41530;52.382;5.270;2022-11-15T07:12:19;8.50;;;3.00;;
55655;SDS011;41530;52.382;5.270;2022-11-15T07:14:46;8.68;;;3.45;;
55655;SDS011;41530;52.382;5.270;2022-11-15T07:17:14;5.22;;;3.10;;
55655;SDS011;41530;52.382;5.270;2022-11-15T07:19:41;6.60;;;3.47;;
55655;SDS011;41530;52.382;5.270;2022-11-15T07:22:08;4.38;;;3.30;;
55655;SDS011;41530;52.382;5.270;2022-11-15T07:24:35;6.82;;;3.58;;
55655;SDS011;41530;52.382;5.270;2022-11-15T07:27:02;4.80;;;2.88;;
55655;SDS011;41530;52.382;5.270;2022-11-15T07:29:29;5.70;;;3.13;;
55655;SDS011;41530;52.382;5.270;2022-11-15T07:31:56;4.30;;;2.78;;
55655;SDS011;41530;52.382;5.270;2022-11-15T07:34:23;4.15;;;2.88;;
55655;SDS011;41530;52.382;5.270;2022-11-15T07:36:53;4.65;;;2.88;;
55655;SDS011;41530;52.382;5.270;2022-11-15T07:39:19;6.95;;;3.50;;
55655;SDS011;41530;52.382;5.270;2022-11-15T07:41:46;4.15;;;2.88;;
55655;SDS011;41530;52.382;5.270;2022-11-15T07:44:14;6.88;;;3.25;;
55655;SDS011;41530;52.382;5.270;2022-11-15T07:46:40;3.55;;;2.95;;
55655;SDS011;41530;52.382;5.270;2022-11-15T07:49:07;4.43;;;2.88;;
55655;SDS011;41530;52.382;5.270;2022-11-15T07:51:34;3.45;;;2.70;;
55655;SDS011;41530;52.382;5.270;2022-11-15T07:54:01;4.15;;;2.40;;
55655;SDS011;41530;52.382;5.270;2022-11-15T07:56:27;4.13;;;2.60;;
55655;SDS011;41530;52.382;5.270;2022-11-15T07:58:54;7.05;;;2.88;;
55655;SDS011;41530;52.382;5.270;2022-11-15T08:01:20;4.28;;;2.63;;
55655;SDS011;41530;52.382;5.270;2022-11-15T08:03:49;5.90;;;2.72;;
55655;SDS011;41530;52.382;5.270;2022-11-15T08:06:15;3.95;;;2.70;;
55655;SDS011;41530;52.382;5.270;2022-11-15T08:08:42;3.90;;;2.40;;
55655;SDS011;41530;52.382;5.270;2022-11-15T08:11:08;2.60;;;2.25;;
55655;SDS011;41530;52.382;5.270;2022-11-15T08:13:35;6.30;;;3.33;;
55655;SDS011;41530;52.382;5.270;2022-11-15T08:16:02;4.38;;;3.15;;
55655;SDS011;41530;52.382;5.270;2022-11-15T08:18:31;4.13;;;2.85;;
55655;SDS011;41530;52.382;5.270;2022-11-15T08:20:59;6.38;;;2.72;;
55655;SDS011;41530;52.382;5.270;2022-11-15T08:23:27;7.28;;;3.30;;
55655;SDS011;41530;52.382;5.270;2022-11-15T08:25:58;5.30;;;3.40;;
55655;SDS011;41530;52.382;5.270;2022-11-15T08:28:26;6.28;;;3.13;;
55655;SDS011;41530;52.382;5.270;2022-11-15T08:30:53;5.30;;;3.25;;
55655;SDS011;41530;52.382;5.270;2022-11-15T08:33:20;6.47;;;2.85;;
55655;SDS011;41530;52.382;5.270;2022-11-15T08:35:46;4.43;;;3.03;;
55655;SDS011;41530;52.382;5.270;2022-11-15T08:38:13;5.60;;;3.08;;
55655;SDS011;41530;52.382;5.270;2022-11-15T08:40:40;7.82;;;2.97;;
55655;SDS011;41530;52.382;5.270;2022-11-15T08:43:07;4.45;;;2.78;;
55655;SDS011;41530;52.382;5.270;2022-11-15T08:45:34;6.68;;;2.65;;
55655;SDS011;41530;52.382;5.270;2022-11-15T08:48:02;4.43;;;2.58;;
55655;SDS011;41530;52.382;5.270;2022-11-15T08:50:29;4.78;;;2.67;;
55655;SDS011;41530;52.382;5.270;2022-11-15T08:52:55;4.78;;;2.25;;
55655;SDS011;41530;52.382;5.270;2022-11-15T08:55:22;4.32;;;2.33;;
55655;SDS011;41530;52.382;5.270;2022-11-15T08:57:50;5.10;;;2.65;;
55655;SDS011;41530;52.382;5.270;2022-11-15T09:00:17;3.15;;;2.20;;
55655;SDS011;41530;52.382;5.270;2022-11-15T09:02:46;4.80;;;2.80;;
55655;SDS011;41530;52.382;5.270;2022-11-15T09:05:13;2.97;;;2.13;;
55655;SDS011;41530;52.382;5.270;2022-11-15T09:07:41;4.50;;;2.20;;
55655;SDS011;41530;52.382;5.270;2022-11-15T09:10:08;3.35;;;2.03;;
55655;SDS011;41530;52.382;5.270;2022-11-15T09:12:35;5.10;;;2.17;;
55655;SDS011;41530;52.382;5.270;2022-11-15T09:15:02;3.30;;;2.20;;
55655;SDS011;41530;52.382;5.270;2022-11-15T09:17:29;4.05;;;2.55;;
55655;SDS011;41530;52.382;5.270;2022-11-15T09:19:55;3.42;;;2.00;;
55655;SDS011;41530;52.382;5.270;2022-11-15T09:22:31;2.92;;;2.00;;
55655;SDS011;41530;52.382;5.270;2022-11-15T09:24:59;2.35;;;2.10;;
55655;SDS011;41530;52.382;5.270;2022-11-15T09:27:29;2.00;;;1.80;;
55655;SDS011;41530;52.382;5.270;2022-11-15T09:29:57;4.63;;;2.33;;
55655;SDS011;41530;52.382;5.270;2022-11-15T09:32:27;2.15;;;1.83;;
55655;SDS011;41530;52.382;5.270;2022-11-15T09:35:01;3.60;;;2.00;;
55655;SDS011;41530;52.382;5.270;2022-11-15T09:37:31;2.88;;;1.80;;
55655;SDS011;41530;52.382;5.270;2022-11-15T09:39:58;3.17;;;1.77;;
55655;SDS011;41530;52.382;5.270;2022-11-15T09:42:29;2.45;;;1.90;;
55655;SDS011;41530;52.382;5.270;2022-11-15T09:47:35;4.20;;;2.55;;
55655;SDS011;41530;52.382;5.270;2022-11-15T09:50:26;3.65;;;2.10;;
55655;SDS011;41530;52.382;5.270;2022-11-15T09:52:57;3.53;;;2.03;;
55655;SDS011;41530;52.382;5.270;2022-11-15T09:55:28;2.20;;;1.75;;
55655;SDS011;41530;52.382;5.270;2022-11-15T09:58:21;1.85;;;1.75;;
55655;SDS011;41530;52.382;5.270;2022-11-15T10:00:56;2.75;;;1.70;;
55655;SDS011;41530;52.382;5.270;2022-11-15T10:03:29;3.10;;;1.77;;
55655;SDS011;41530;52.382;5.270;2022-11-15T10:06:01;2.75;;;1.60;;
55655;SDS011;41530;52.382;5.270;2022-11-15T10:11:20;3.70;;;1.85;;
55655;SDS011;41530;52.382;5.270;2022-11-15T10:22:40;1.88;;;1.50;;
55655;SDS011;41530;52.382;5.270;2022-11-15T10:25:16;2.17;;;1.55;;
55655;SDS011;41530;52.382;5.270;2022-11-15T10:27:50;2.90;;;1.90;;
55655;SDS011;41530;52.382;5.270;2022-11-15T10:30:39;2.08;;;1.50;;
55655;SDS011;41530;52.382;5.270;2022-11-15T10:33:20;3.85;;;1.60;;
55655;SDS011;41530;52.382;5.270;2022-11-15T10:41:15;1.75;;;1.63;;
55655;SDS011;41530;52.382;5.270;2022-11-15T10:43:46;2.30;;;1.67;;
55655;SDS011;41530;52.382;5.270;2022-11-15T10:46:33;2.53;;;1.77;;
55655;SDS011;41530;52.382;5.270;2022-11-15T10:49:19;3.45;;;1.80;;
55655;SDS011;41530;52.382;5.270;2022-11-15T10:51:53;2.35;;;1.70;;
55655;SDS011;41530;52.382;5.270;2022-11-15T10:54:50;2.72;;;1.83;;
55655;SDS011;41530;52.382;5.270;2022-11-15T10:57:38;1.73;;;1.40;;
55655;SDS011;41530;52.382;5.270;2022-11-15T11:00:42;1.80;;;1.45;;
55655;SDS011;41530;52.382;5.270;2022-11-15T11:03:05;1.40;;;1.30;;
55655;SDS011;41530;52.382;5.270;2022-11-15T11:06:02;1.60;;;1.27;;
55655;SDS011;41530;52.382;5.270;2022-11-15T11:08:53;1.63;;;1.17;;
55655;SDS011;41530;52.382;5.270;2022-11-15T11:11:21;2.33;;;1.27;;
55655;SDS011;41530;52.382;5.270;2022-11-15T11:13:49;1.52;;;1.30;;
55655;SDS011;41530;52.382;5.270;2022-11-15T11:16:20;1.20;;;1.10;;
55655;SDS011;41530;52.382;5.270;2022-11-15T11:41:43;2.00;;;1.30;;
55655;SDS011;41530;52.382;5.270;2022-11-15T11:47:27;1.20;;;1.10;;
55655;SDS011;41530;52.382;5.270;2022-11-15T11:50:37;1.38;;;0.98;;
55655;SDS011;41530;52.382;5.270;2022-11-15T11:56:41;1.20;;;1.10;;
55655;SDS011;41530;52.382;5.270;2022-11-15T11:59:29;1.40;;;1.20;;
55655;SDS011;41530;52.382;5.270;2022-11-15T12:04:52;1.20;;;1.00;;
55655;SDS011;41530;52.382;5.270;2022-11-15T12:07:30;1.83;;;1.20;;
55655;SDS011;41530;52.382;5.270;2022-11-15T12:10:04;0.98;;;0.88;;
55655;SDS011;41530;52.382;5.270;2022-11-15T12:15:38;2.10;;;0.98;;
55655;SDS011;41530;52.382;5.270;2022-11-15T12:18:12;2.13;;;1.15;;
55655;SDS011;41530;52.382;5.270;2022-11-15T12:20:54;1.90;;;1.00;;
55655;SDS011;41530;52.382;5.270;2022-11-15T12:23:26;1.33;;;1.05;;
55655;SDS011;41530;52.382;5.270;2022-11-15T12:28:52;3.00;;;1.10;;
55655;SDS011;41530;52.382;5.270;2022-11-15T12:31:40;1.45;;;0.90;;
55655;SDS011;41530;52.382;5.270;2022-11-15T12:36:41;1.23;;;1.00;;
55655;SDS011;41530;52.382;5.270;2022-11-15T12:39:11;1.80;;;1.10;;
55655;SDS011;41530;52.382;5.270;2022-11-15T12:41:42;1.92;;;1.00;;
55655;SDS011;41530;52.382;5.270;2022-11-15T13:02:22;1.30;;;1.05;;
55655;SDS011;41530;52.382;5.270;2022-11-15T13:04:52;1.40;;;0.90;;
55655;SDS011;41530;52.382;5.270;2022-11-15T13:20:20;2.85;;;1.02;;
55655;SDS011;41530;52.382;5.270;2022-11-15T13:28:48;1.10;;;0.90;;
55655;SDS011;41530;52.382;5.270;2022-11-15T13:33:53;3.13;;;1.10;;
55655;SDS011;41530;52.382;5.270;2022-11-15T13:36:24;0.93;;;0.73;;
55655;SDS011;41530;52.382;5.270;2022-11-15T13:38:54;2.10;;;0.75;;
55655;SDS011;41530;52.382;5.270;2022-11-15T13:41:22;0.82;;;0.68;;
55655;SDS011;41530;52.382;5.270;2022-11-15T13:43:51;0.68;;;0.60;;
55655;SDS011;41530;52.382;5.270;2022-11-15T13:46:20;2.40;;;0.70;;
55655;SDS011;41530;52.382;5.270;2022-11-15T13:48:52;1.55;;;0.90;;
55655;SDS011;41530;52.382;5.270;2022-11-15T13:51:35;0.90;;;0.68;;
55655;SDS011;41530;52.382;5.270;2022-11-15T13:56:40;1.65;;;0.80;;
55655;SDS011;41530;52.382;5.270;2022-11-15T13:59:18;1.05;;;0.75;;
55655;SDS011;41530;52.382;5.270;2022-11-15T14:01:46;2.38;;;0.80;;
55655;SDS011;41530;52.382;5.270;2022-11-15T14:04:13;0.63;;;0.63;;
55655;SDS011;41530;52.382;5.270;2022-11-15T14:06:48;1.48;;;0.80;;
55655;SDS011;41530;52.382;5.270;2022-11-15T14:09:29;1.60;;;0.60;;
55655;SDS011;41530;52.382;5.270;2022-11-15T14:11:59;0.65;;;0.60;;
55655;SDS011;41530;52.382;5.270;2022-11-15T14:14:28;0.75;;;0.50;;
55655;SDS011;41530;52.382;5.270;2022-11-15T14:16:59;0.70;;;0.70;;
55655;SDS011;41530;52.382;5.270;2022-11-15T14:24:38;1.25;;;0.60;;
55655;SDS011;41530;52.382;5.270;2022-11-15T14:27:28;1.33;;;0.90;;
55655;SDS011;41530;52.382;5.270;2022-11-15T14:29:55;0.73;;;0.70;;
55655;SDS011;41530;52.382;5.270;2022-11-15T14:32:25;0.98;;;0.60;;
55655;SDS011;41530;52.382;5.270;2022-11-15T14:35:08;1.67;;;0.70;;
55655;SDS011;41530;52.382;5.270;2022-11-15T14:37:40;0.82;;;0.60;;
55655;SDS011;41530;52.382;5.270;2022-11-15T14:40:08;0.80;;;0.57;;
55655;SDS011;41530;52.382;5.270;2022-11-15T14:42:39;0.70;;;0.70;;
55655;SDS011;41530;52.382;5.270;2022-11-15T14:45:17;0.80;;;0.60;;
55655;SDS011;41530;52.382;5.270;2022-11-15T14:47:45;1.40;;;0.70;;
55655;SDS011;41530;52.382;5.270;2022-11-15T14:50:14;0.70;;;0.65;;
55655;SDS011;41530;52.382;5.270;2022-11-15T14:52:43;0.93;;;0.63;;
55655;SDS011;41530;52.382;5.270;2022-11-15T14:55:21;0.55;;;0.52;;
55655;SDS011;41530;52.382;5.270;2022-11-15T14:57:51;1.95;;;0.60;;
55655;SDS011;41530;52.382;5.270;2022-11-15T15:00:21;3.97;;;0.60;;
55655;SDS011;41530;52.382;5.270;2022-11-15T15:02:48;1.90;;;0.73;;
55655;SDS011;41530;52.382;5.270;2022-11-15T15:05:19;1.48;;;0.50;;
55655;SDS011;41530;52.382;5.270;2022-11-15T15:07:47;4.40;;;0.60;;
55655;SDS011;41530;52.382;5.270;2022-11-15T15:10:15;0.45;;;0.45;;
55655;SDS011;41530;52.382;5.270;2022-11-15T15:13:02;0.52;;;0.50;;
55655;SDS011;41530;52.382;5.270;2022-11-15T15:15:37;0.90;;;0.60;;
55655;SDS011;41530;52.382;5.270;2022-11-15T15:18:04;0.65;;;0.60;;
55655;SDS011;41530;52.382;5.270;2022-11-15T15:20:31;1.17;;;0.55;;
55655;SDS011;41530;52.382;5.270;2022-11-15T15:22:58;1.42;;;0.50;;
55655;SDS011;41530;52.382;5.270;2022-11-15T15:25:30;0.95;;;0.63;;
55655;SDS011;41530;52.382;5.270;2022-11-15T15:27:59;0.90;;;0.57;;
55655;SDS011;41530;52.382;5.270;2022-11-15T15:30:26;2.92;;;0.40;;
55655;SDS011;41530;52.382;5.270;2022-11-15T15:32:55;1.10;;;0.68;;
55655;SDS011;41530;52.382;5.270;2022-11-15T15:35:22;0.73;;;0.43;;
55655;SDS011;41530;52.382;5.270;2022-11-15T15:37:49;1.90;;;0.90;;
55655;SDS011;41530;52.382;5.270;2022-11-15T15:40:17;1.33;;;0.60;;
55655;SDS011;41530;52.382;5.270;2022-11-15T15:42:46;0.55;;;0.50;;
55655;SDS011;41530;52.382;5.270;2022-11-15T15:45:14;0.77;;;0.50;;
55655;SDS011;41530;52.382;5.270;2022-11-15T15:47:41;2.13;;;0.57;;
55655;SDS011;41530;52.382;5.270;2022-11-15T15:50:18;0.45;;;0.45;;
55655;SDS011;41530;52.382;5.270;2022-11-15T15:52:51;0.40;;;0.40;;
55655;SDS011;41530;52.382;5.270;2022-11-15T15:55:19;2.17;;;0.68;;
55655;SDS011;41530;52.382;5.270;2022-11-15T15:57:47;0.73;;;0.60;;
55655;SDS011;41530;52.382;5.270;2022-11-15T16:00:14;1.80;;;0.60;;
55655;SDS011;41530;52.382;5.270;2022-11-15T16:02:42;1.88;;;0.60;;
55655;SDS011;41530;52.382;5.270;2022-11-15T16:05:09;0.98;;;0.47;;
55655;SDS011;41530;52.382;5.270;2022-11-15T16:07:37;0.63;;;0.57;;
55655;SDS011;41530;52.382;5.270;2022-11-15T16:10:25;0.82;;;0.50;;
55655;SDS011;41530;52.382;5.270;2022-11-15T16:12:53;6.45;;;0.60;;
55655;SDS011;41530;52.382;5.270;2022-11-15T16:15:22;1.00;;;0.50;;
55655;SDS011;41530;52.382;5.270;2022-11-15T16:17:51;1.80;;;0.52;;
55655;SDS011;41530;52.382;5.270;2022-11-15T16:23:01;1.08;;;0.60;;
55655;SDS011;41530;52.382;5.270;2022-11-15T16:25:42;1.05;;;0.73;;
55655;SDS011;41530;52.382;5.270;2022-11-15T16:28:17;0.98;;;0.65;;
55655;SDS011;41530;52.382;5.270;2022-11-15T16:30:49;1.95;;;0.52;;
55655;SDS011;41530;52.382;5.270;2022-11-15T16:33:47;1.80;;;0.50;;
55655;SDS011;41530;52.382;5.270;2022-11-15T16:36:24;1.02;;;0.70;;
55655;SDS011;41530;52.382;5.270;2022-11-15T16:38:56;0.65;;;0.45;;
55655;SDS011;41530;52.382;5.270;2022-11-15T16:41:23;1.95;;;0.52;;
55655;SDS011;41530;52.382;5.270;2022-11-15T16:43:51;1.08;;;0.55;;
55655;SDS011;41530;52.382;5.270;2022-11-15T16:46:21;1.23;;;0.50;;
55655;SDS011;41530;52.382;5.270;2022-11-15T16:48:51;1.20;;;0.70;;
55655;SDS011;41530;52.382;5.270;2022-11-15T16:51:27;1.27;;;0.57;;
55655;SDS011;41530;52.382;5.270;2022-11-15T16:54:14;1.85;;;0.70;;
55655;SDS011;41530;52.382;5.270;2022-11-15T16:56:40;0.90;;;0.63;;
55655;SDS011;41530;52.382;5.270;2022-11-15T16:59:08;1.25;;;0.70;;
55655;SDS011;41530;52.382;5.270;2022-11-15T17:01:41;1.70;;;0.70;;
55655;SDS011;41530;52.382;5.270;2022-11-15T17:04:16;1.38;;;0.70;;
55655;SDS011;41530;52.382;5.270;2022-11-15T17:06:45;2.17;;;0.70;;
55655;SDS011;41530;52.382;5.270;2022-11-15T17:09:17;2.05;;;0.93;;
55655;SDS011;41530;52.382;5.270;2022-11-15T17:11:45;0.95;;;0.60;;
55655;SDS011;41530;52.382;5.270;2022-11-15T17:14:12;5.20;;;0.90;;
55655;SDS011;41530;52.382;5.270;2022-11-15T17:16:39;1.48;;;0.80;;
55655;SDS011;41530;52.382;5.270;2022-11-15T17:19:11;0.73;;;0.52;;